createdAt,value
2023-11-30T00:00:19.016Z,50.000000
2023-11-30T00:05:21.183Z,50.000000
2023-11-30T00:10:25.079Z,50.000000
2023-11-30T00:15:18.822Z,50.000000
2023-11-30T00:20:18.820Z,50.000000
2023-11-30T00:25:18.783Z,50.000000
2023-11-30T00:30:25.178Z,50.000000
2023-11-30T00:35:18.846Z,50.000000
2023-11-30T00:41:02.311Z,51.000000
2023-11-30T00:46:09.387Z,50.000000
2023-11-30T00:50:25.041Z,50.000000
2023-11-30T00:55:25.101Z,51.000000
2023-11-30T01:00:25.161Z,51.000000
2023-11-30T01:05:18.825Z,51.000000
2023-11-30T01:10:18.839Z,51.000000
2023-11-30T01:15:56.173Z,51.000000
2023-11-30T01:20:18.840Z,51.000000
2023-11-30T01:25:18.900Z,51.000000
2023-11-30T01:30:18.900Z,52.000000
2023-11-30T01:35:18.880Z,52.000000
2023-11-30T01:40:18.891Z,52.000000
2023-11-30T01:46:04.147Z,52.000000
2023-11-30T01:50:17.072Z,52.000000
2023-11-30T01:56:02.439Z,52.000000
2023-11-30T02:01:02.406Z,52.000000
2023-11-30T02:06:02.361Z,52.000000
2023-11-30T02:10:18.902Z,52.000000
2023-11-30T02:15:18.981Z,52.000000
2023-11-30T02:20:17.114Z,52.000000
2023-11-30T02:25:17.042Z,52.000000
2023-11-30T02:30:19.000Z,52.000000
2023-11-30T02:35:18.875Z,52.000000
2023-11-30T02:40:18.880Z,52.000000
2023-11-30T02:45:18.919Z,53.000000
2023-11-30T02:50:18.940Z,53.000000
2023-11-30T02:56:02.392Z,53.000000
2023-11-30T03:01:02.391Z,53.000000
2023-11-30T03:05:18.941Z,53.000000
2023-11-30T03:10:17.191Z,53.000000
2023-11-30T03:15:17.109Z,53.000000
2023-11-30T03:20:17.117Z,53.000000
2023-11-30T03:25:17.142Z,53.000000
2023-11-30T03:30:18.974Z,54.000000
2023-11-30T03:35:18.951Z,54.000000
2023-11-30T03:40:25.161Z,54.000000
2023-11-30T03:46:02.440Z,55.000000
2023-11-30T03:50:17.148Z,55.000000
2023-11-30T03:55:17.126Z,55.000000
2023-11-30T04:00:17.168Z,56.000000
2023-11-30T04:05:18.942Z,56.000000
2023-11-30T04:11:02.440Z,56.000000
2023-11-30T04:15:19.009Z,56.000000
2023-11-30T04:20:18.999Z,56.000000
2023-11-30T04:25:18.941Z,57.000000
2023-11-30T04:30:17.354Z,56.000000
2023-11-30T04:36:02.480Z,56.000000
2023-11-30T04:40:17.191Z,56.000000
2023-11-30T04:45:19.090Z,56.000000
2023-11-30T04:50:25.211Z,57.000000
2023-11-30T04:55:18.944Z,57.000000
2023-11-30T05:00:18.289Z,57.000000
2023-11-30T05:06:15.748Z,57.000000
2023-11-30T05:10:18.213Z,57.000000
2023-11-30T05:16:01.748Z,57.000000
2023-11-30T05:21:01.739Z,57.000000
2023-11-30T05:25:18.219Z,56.000000
2023-11-30T05:30:24.497Z,56.000000
2023-11-30T05:35:24.456Z,55.000000
2023-11-30T05:40:18.231Z,55.000000
2023-11-30T05:45:16.598Z,54.000000
2023-11-30T05:50:24.525Z,54.000000
2023-11-30T05:56:01.764Z,54.000000
2023-11-30T06:00:18.265Z,54.000000
2023-11-30T06:05:16.547Z,54.000000
2023-11-30T06:10:16.300Z,54.000000
2023-11-30T06:15:24.484Z,54.000000
2023-11-30T06:20:18.306Z,54.000000
2023-11-30T06:25:18.259Z,55.000000
2023-11-30T06:31:01.852Z,55.000000
2023-11-30T06:35:16.296Z,55.000000
2023-11-30T06:40:18.297Z,56.000000
2023-11-30T06:45:18.282Z,55.000000
2023-11-30T06:51:01.798Z,56.000000
2023-11-30T06:55:18.248Z,56.000000
2023-11-30T07:00:16.570Z,55.000000
2023-11-30T07:05:18.295Z,55.000000
2023-11-30T07:11:01.807Z,55.000000
2023-11-30T07:16:01.891Z,55.000000
2023-11-30T07:21:01.783Z,55.000000
2023-11-30T07:25:24.545Z,55.000000
2023-11-30T07:30:24.584Z,54.000000
2023-11-30T07:35:18.280Z,54.000000
2023-11-30T07:40:18.290Z,54.000000
2023-11-30T07:46:01.936Z,53.000000
2023-11-30T07:51:01.948Z,53.000000
2023-11-30T07:55:18.320Z,53.000000
2023-11-30T08:00:18.525Z,53.000000
2023-11-30T08:05:18.297Z,53.000000
2023-11-30T08:10:16.539Z,53.000000
2023-11-30T08:15:18.319Z,53.000000
2023-11-30T08:21:01.871Z,54.000000
2023-11-30T08:26:01.779Z,54.000000
2023-11-30T08:30:18.316Z,54.000000
2023-11-30T08:35:24.621Z,54.000000
2023-11-30T08:41:06.777Z,54.000000
2023-11-30T08:45:18.322Z,54.000000
2023-11-30T08:50:18.402Z,54.000000
2023-11-30T08:56:01.846Z,54.000000
2023-11-30T09:00:20.222Z,53.000000
2023-11-30T09:05:16.590Z,53.000000
2023-11-30T09:10:16.586Z,53.000000
2023-11-30T09:15:20.073Z,53.000000
2023-11-30T09:20:18.419Z,53.000000
2023-11-30T09:25:16.593Z,54.000000
2023-11-30T09:30:18.456Z,54.000000
2023-11-30T09:35:16.574Z,54.000000
2023-11-30T09:40:18.412Z,54.000000
2023-11-30T09:45:16.644Z,54.000000
2023-11-30T09:50:16.569Z,54.000000
2023-11-30T09:55:18.368Z,53.000000
2023-11-30T10:00:18.407Z,53.000000
2023-11-30T10:05:55.611Z,53.000000
2023-11-30T10:10:24.623Z,53.000000
2023-11-30T10:16:02.187Z,53.000000
2023-11-30T10:20:24.598Z,53.000000
2023-11-30T10:26:01.888Z,53.000000
2023-11-30T10:31:01.956Z,54.000000
2023-11-30T10:35:18.422Z,53.000000
2023-11-30T10:40:16.612Z,54.000000
2023-11-30T10:45:18.442Z,54.000000
2023-11-30T10:50:24.645Z,54.000000
2023-11-30T10:55:18.375Z,53.000000
2023-11-30T11:00:16.681Z,54.000000
2023-11-30T11:05:16.577Z,54.000000
2023-11-30T11:11:01.875Z,54.000000
2023-11-30T11:16:01.976Z,54.000000
2023-11-30T11:20:18.870Z,54.000000
2023-11-30T11:25:18.422Z,55.000000
2023-11-30T11:30:18.507Z,54.000000
2023-11-30T11:36:01.893Z,55.000000
2023-11-30T11:41:01.980Z,55.000000
2023-11-30T11:46:02.013Z,54.000000
2023-11-30T11:50:18.459Z,55.000000
2023-11-30T11:56:01.902Z,55.000000
2023-11-30T12:00:18.653Z,55.000000
2023-11-30T12:05:18.444Z,55.000000
2023-11-30T12:10:18.433Z,55.000000
2023-11-30T12:15:16.754Z,55.000000
2023-11-30T12:20:18.445Z,55.000000
2023-11-30T12:25:18.470Z,55.000000
2023-11-30T12:31:01.980Z,54.000000
2023-11-30T12:36:01.913Z,55.000000
2023-11-30T12:41:01.927Z,55.000000
2023-11-30T12:45:18.481Z,55.000000
2023-11-30T12:50:18.535Z,55.000000
2023-11-30T12:56:01.910Z,54.000000
2023-11-30T13:00:18.496Z,54.000000
2023-11-30T13:06:01.963Z,54.000000
2023-11-30T13:10:18.428Z,53.000000
2023-11-30T13:15:18.538Z,53.000000
2023-11-30T13:20:18.508Z,52.000000
2023-11-30T13:25:18.471Z,52.000000
2023-11-30T13:31:02.102Z,52.000000
2023-11-30T13:35:16.762Z,52.000000
2023-11-30T13:40:16.776Z,52.000000
2023-11-30T13:45:18.537Z,51.000000
2023-11-30T13:50:26.258Z,51.000000
2023-11-30T13:55:18.469Z,50.000000
2023-11-30T14:00:16.703Z,50.000000
2023-11-30T14:06:01.958Z,50.000000
2023-11-30T14:10:24.840Z,49.000000
2023-11-30T14:15:55.788Z,48.000000
2023-11-30T14:20:18.509Z,48.000000
2023-11-30T14:25:18.538Z,47.000000
2023-11-30T14:30:18.533Z,47.000000
2023-11-30T14:35:16.602Z,47.000000
2023-11-30T14:41:02.008Z,47.000000
2023-11-30T14:45:18.567Z,46.000000
2023-11-30T14:50:18.564Z,46.000000
2023-11-30T14:55:18.464Z,46.000000
2023-11-30T15:00:18.709Z,46.000000
2023-11-30T15:06:02.005Z,46.000000
2023-11-30T15:11:02.056Z,46.000000
2023-11-30T15:16:02.202Z,45.000000
2023-11-30T15:20:20.345Z,45.000000
2023-11-30T15:26:02.000Z,45.000000
2023-11-30T15:31:02.023Z,44.000000
2023-11-30T15:35:18.532Z,44.000000
2023-11-30T15:40:18.756Z,44.000000
2023-11-30T15:45:19.050Z,44.000000
2023-11-30T15:50:18.537Z,44.000000
2023-11-30T15:55:16.537Z,44.000000
2023-11-30T16:01:02.028Z,45.000000
2023-11-30T16:05:24.770Z,45.000000
2023-11-30T16:10:18.596Z,44.000000
2023-11-30T16:15:18.522Z,44.000000
2023-11-30T16:20:18.585Z,43.000000
2023-11-30T16:26:02.109Z,43.000000
2023-11-30T16:31:02.115Z,43.000000
2023-11-30T16:36:02.085Z,43.000000
2023-11-30T16:41:02.060Z,43.000000
2023-11-30T16:46:02.142Z,43.000000
2023-11-30T16:51:02.040Z,43.000000
2023-11-30T16:55:18.561Z,42.000000
2023-11-30T17:00:18.717Z,42.000000
2023-11-30T17:05:18.574Z,42.000000
2023-11-30T17:10:16.756Z,42.000000
2023-11-30T17:15:18.599Z,42.000000
2023-11-30T17:20:55.848Z,42.000000
2023-11-30T17:25:18.671Z,43.000000
2023-11-30T17:31:02.095Z,42.000000
2023-11-30T17:36:02.083Z,41.000000
2023-11-30T17:40:18.611Z,41.000000
2023-11-30T17:45:18.632Z,41.000000
2023-11-30T17:50:18.569Z,41.000000
2023-11-30T17:55:19.399Z,41.000000
2023-11-30T18:01:02.126Z,40.000000
2023-11-30T18:05:24.803Z,40.000000
2023-11-30T18:10:18.629Z,40.000000
2023-11-30T18:16:04.084Z,40.000000
2023-11-30T18:20:18.638Z,40.000000
2023-11-30T18:25:18.608Z,40.000000
2023-11-30T18:31:12.040Z,40.000000
2023-11-30T18:35:16.776Z,40.000000
2023-11-30T18:40:18.688Z,40.000000
2023-11-30T18:45:18.613Z,40.000000
2023-11-30T18:50:18.604Z,40.000000
2023-11-30T18:55:16.797Z,39.000000
2023-11-30T19:00:18.649Z,39.000000
2023-11-30T19:05:18.638Z,38.000000
2023-11-30T19:10:16.800Z,38.000000
2023-11-30T19:15:24.900Z,38.000000
2023-11-30T19:20:18.649Z,39.000000
2023-11-30T19:25:18.618Z,39.000000
2023-11-30T19:30:18.686Z,39.000000
2023-11-30T19:35:16.805Z,39.000000
2023-11-30T19:40:24.896Z,39.000000
2023-11-30T19:46:03.280Z,40.000000
2023-11-30T19:50:16.720Z,40.000000
2023-11-30T19:56:02.153Z,40.000000
2023-11-30T20:01:02.239Z,40.000000
2023-11-30T20:05:18.706Z,40.000000
2023-11-30T20:11:02.095Z,41.000000
2023-11-30T20:16:02.153Z,41.000000
2023-11-30T20:21:02.108Z,40.000000
2023-11-30T20:26:02.125Z,40.000000
2023-11-30T20:31:02.209Z,40.000000
2023-11-30T20:35:18.653Z,41.000000
2023-11-30T20:41:02.160Z,41.000000
2023-11-30T20:46:02.124Z,41.000000
2023-11-30T20:51:02.184Z,42.000000
2023-11-30T20:55:16.910Z,42.000000
2023-11-30T21:00:16.928Z,42.000000
2023-11-30T21:06:02.285Z,43.000000
2023-11-30T21:10:24.943Z,43.000000
2023-11-30T21:15:18.667Z,43.000000
2023-11-30T21:21:02.139Z,44.000000
2023-11-30T21:25:18.684Z,44.000000
2023-11-30T21:30:18.691Z,45.000000
2023-11-30T21:35:16.825Z,45.000000
2023-11-30T21:40:16.864Z,45.000000
2023-11-30T21:46:02.195Z,46.000000
2023-11-30T21:51:02.170Z,46.000000
2023-11-30T21:55:24.889Z,46.000000
2023-11-30T22:00:18.786Z,46.000000
2023-11-30T22:05:24.174Z,47.000000
2023-11-30T22:10:18.699Z,47.000000
2023-11-30T22:15:20.485Z,47.000000
2023-11-30T22:20:18.748Z,48.000000
2023-11-30T22:25:18.698Z,48.000000
2023-11-30T22:30:18.708Z,49.000000
2023-11-30T22:35:18.723Z,50.000000
2023-11-30T22:40:16.902Z,50.000000
2023-11-30T22:46:02.219Z,51.000000
2023-11-30T22:50:25.026Z,51.000000
2023-11-30T22:55:18.828Z,52.000000
2023-11-30T23:00:18.763Z,52.000000
2023-11-30T23:05:17.022Z,53.000000
2023-11-30T23:10:18.895Z,53.000000
2023-11-30T23:15:18.709Z,54.000000
2023-11-30T23:21:02.227Z,54.000000
2023-11-30T23:25:24.937Z,55.000000
2023-11-30T23:30:18.759Z,55.000000
2023-11-30T23:35:18.742Z,55.000000
2023-11-30T23:40:18.736Z,56.000000
2023-11-30T23:46:02.237Z,56.000000
2023-11-30T23:50:25.177Z,57.000000
2023-11-30T23:55:18.810Z,57.000000
